createdAt,value
2022-12-22T00:00:02.127Z,88395.50
2022-12-22T00:02:47.379Z,88388.50
2022-12-22T00:05:32.522Z,88388.41
2022-12-22T00:08:17.239Z,88376.75
2022-12-22T00:11:01.912Z,88386.53
2022-12-22T00:13:46.718Z,88379.66
2022-12-22T00:16:31.510Z,88376.19
2022-12-22T00:19:16.343Z,88377.56
2022-12-22T00:22:01.148Z,88396.84
2022-12-22T00:24:45.975Z,88397.22
2022-12-22T00:27:30.555Z,88395.50
2022-12-22T00:30:15.290Z,88391.59
2022-12-22T00:33:00.059Z,88387.31
2022-12-22T00:35:44.871Z,88380.84
2022-12-22T00:38:29.580Z,88385.25
2022-12-22T00:41:14.324Z,88391.94
2022-12-22T00:43:59.110Z,88383.34
2022-12-22T00:46:43.983Z,88387.44
2022-12-22T00:49:29.122Z,88388.41
2022-12-22T00:52:13.828Z,88406.66
2022-12-22T00:54:58.656Z,88410.97
2022-12-22T00:57:43.881Z,88409.97
2022-12-22T01:00:28.592Z,88399.16
2022-12-22T01:03:13.411Z,88418.03
2022-12-22T01:05:58.596Z,88407.97
2022-12-22T01:08:43.325Z,88391.03
2022-12-22T01:11:28.072Z,88397.03
2022-12-22T01:14:12.871Z,88407.13
2022-12-22T01:16:57.576Z,88402.34
2022-12-22T01:19:42.421Z,88409.84
2022-12-22T01:22:27.175Z,88419.94
2022-12-22T01:25:12.160Z,88405.16
2022-12-22T01:27:57.020Z,88415.34
2022-12-22T01:30:41.713Z,88405.75
2022-12-22T01:33:26.389Z,88414.75
2022-12-22T01:36:11.076Z,88412.81
2022-12-22T01:38:55.813Z,88420.00
2022-12-22T01:41:40.385Z,88421.78
2022-12-22T01:44:25.161Z,88424.97
2022-12-22T01:47:09.949Z,88421.66
2022-12-22T01:49:54.777Z,88430.19
2022-12-22T01:52:39.524Z,88427.69
2022-12-22T01:55:24.268Z,88425.78
2022-12-22T01:58:08.881Z,88434.88
2022-12-22T02:00:53.598Z,88426.38
2022-12-22T02:03:38.560Z,88426.88
2022-12-22T02:06:23.131Z,88427.16
2022-12-22T02:09:07.930Z,88427.88
2022-12-22T02:11:52.506Z,88425.13
2022-12-22T02:14:37.338Z,88419.03
2022-12-22T02:17:21.988Z,88419.84
2022-12-22T02:20:06.904Z,88424.00
2022-12-22T02:22:51.513Z,88417.91
2022-12-22T02:25:36.175Z,88425.19
2022-12-22T02:28:20.868Z,88426.16
2022-12-22T02:31:05.706Z,88427.38
2022-12-22T02:33:50.534Z,88420.00
2022-12-22T02:36:35.230Z,88423.16
2022-12-22T02:39:20.027Z,88426.06
2022-12-22T02:42:04.672Z,88423.16
2022-12-22T02:44:49.550Z,88424.88
2022-12-22T02:47:34.240Z,88429.09
2022-12-22T02:50:19.020Z,88421.50
2022-12-22T02:53:03.800Z,88422.09
2022-12-22T02:55:48.542Z,88430.34
2022-12-22T02:58:33.851Z,88438.34
2022-12-22T03:01:18.622Z,88435.13
2022-12-22T03:04:03.439Z,88430.91
2022-12-22T03:06:48.275Z,88445.16
2022-12-22T03:09:33.035Z,88444.41
2022-12-22T03:12:17.722Z,88443.88
2022-12-22T03:15:02.714Z,88446.00
2022-12-22T03:17:47.387Z,88448.44
2022-12-22T03:20:32.054Z,88436.94
2022-12-22T03:23:16.739Z,88442.91
2022-12-22T03:26:01.537Z,88439.31
2022-12-22T03:28:46.217Z,88430.56
2022-12-22T03:31:31.240Z,88431.34
2022-12-22T03:34:16.317Z,88440.56
2022-12-22T03:37:01.031Z,88435.06
2022-12-22T03:39:45.819Z,88428.28
2022-12-22T03:42:30.604Z,88427.38
2022-12-22T03:45:15.530Z,88428.28
2022-12-22T03:48:00.150Z,88428.97
2022-12-22T03:50:44.828Z,88429.06
2022-12-22T03:53:29.445Z,88435.44
2022-12-22T03:56:14.180Z,88436.44
2022-12-22T03:58:59.024Z,88434.13
2022-12-22T04:01:43.730Z,88432.03
2022-12-22T04:04:28.697Z,88424.25
2022-12-22T04:07:13.486Z,88408.56
2022-12-22T04:09:58.246Z,88408.06
2022-12-22T04:12:42.983Z,88400.38
2022-12-22T04:15:27.799Z,88383.16
2022-12-22T04:18:12.549Z,88379.16
2022-12-22T04:20:57.309Z,88379.78
2022-12-22T04:23:42.060Z,88384.00
2022-12-22T04:26:26.757Z,88377.38
2022-12-22T04:29:11.481Z,88372.63
2022-12-22T04:31:56.289Z,88385.09
2022-12-22T04:34:41.516Z,88378.41
2022-12-22T04:37:26.266Z,88380.22
2022-12-22T04:40:11.071Z,88378.13
2022-12-22T04:42:55.639Z,88389.06
2022-12-22T04:45:40.471Z,88379.78
2022-12-22T04:48:25.067Z,88375.50
2022-12-22T04:51:09.836Z,88379.78
2022-12-22T04:53:54.436Z,88382.47
2022-12-22T04:56:39.157Z,88396.78
2022-12-22T04:59:23.848Z,88394.47
2022-12-22T05:02:08.897Z,88381.88
2022-12-22T05:04:54.102Z,88388.69
2022-12-22T05:07:38.885Z,88385.28
2022-12-22T05:10:23.654Z,88378.72
2022-12-22T05:13:08.321Z,88376.81
2022-12-22T05:15:53.206Z,88386.97
2022-12-22T05:18:38.081Z,88379.91
2022-12-22T05:21:22.791Z,88383.91
2022-12-22T05:24:07.547Z,88384.03
2022-12-22T05:26:52.279Z,88392.63
2022-12-22T05:29:37.192Z,88388.16
2022-12-22T05:32:21.985Z,88387.66
2022-12-22T05:35:06.970Z,88393.75
2022-12-22T05:37:51.680Z,88401.94
2022-12-22T05:40:36.351Z,88406.13
2022-12-22T05:43:21.033Z,88397.44
2022-12-22T05:46:05.890Z,88410.00
2022-12-22T05:48:50.472Z,88421.28
2022-12-22T05:51:35.139Z,88427.09
2022-12-22T05:54:19.829Z,88441.47
2022-12-22T05:57:04.628Z,88439.28
2022-12-22T05:59:49.259Z,88447.56
2022-12-22T06:02:34.140Z,88451.56
2022-12-22T06:05:19.369Z,88463.19
2022-12-22T06:08:04.064Z,88452.25
2022-12-22T06:10:48.856Z,88455.63
2022-12-22T06:13:33.526Z,88473.06
2022-12-22T06:16:18.376Z,88464.88
2022-12-22T06:19:02.993Z,88477.44
2022-12-22T06:21:47.860Z,88485.63
2022-12-22T06:24:32.769Z,88478.06
2022-12-22T06:27:17.557Z,88477.16
2022-12-22T06:30:02.429Z,88470.97
2022-12-22T06:32:47.154Z,88477.00
2022-12-22T06:35:31.931Z,88487.00
2022-12-22T06:38:16.649Z,88477.25
2022-12-22T06:41:01.488Z,88472.19
2022-12-22T06:43:46.262Z,88475.91
2022-12-22T06:46:31.035Z,88473.63
2022-12-22T06:49:15.660Z,88474.00
2022-12-22T06:52:00.410Z,88483.47
2022-12-22T06:54:45.121Z,88480.66
2022-12-22T06:57:29.829Z,88472.84
2022-12-22T07:00:14.597Z,88481.34
2022-12-22T07:02:59.319Z,88466.09
2022-12-22T07:05:44.585Z,88462.09
2022-12-22T07:08:29.356Z,88445.47
2022-12-22T07:11:14.231Z,88436.19
2022-12-22T07:13:58.796Z,88446.97
2022-12-22T07:16:43.691Z,88433.91
2022-12-22T07:19:28.758Z,88425.81
2022-12-22T07:22:13.504Z,88434.22
2022-12-22T07:24:58.316Z,88431.72
2022-12-22T07:27:43.074Z,88429.72
2022-12-22T07:30:27.816Z,88420.44
2022-12-22T07:33:12.564Z,88432.94
2022-12-22T07:35:57.292Z,88435.72
2022-12-22T07:38:42.063Z,88436.25
2022-12-22T07:41:26.939Z,88428.94
2022-12-22T07:44:11.527Z,88424.25
2022-12-22T07:46:56.377Z,88421.53
2022-12-22T07:49:41.133Z,88424.84
2022-12-22T07:52:25.811Z,88426.25
2022-12-22T07:55:10.396Z,88440.75
2022-12-22T07:57:55.093Z,88440.84
2022-12-22T08:00:39.885Z,88456.53
2022-12-22T08:03:24.688Z,88464.53
2022-12-22T08:06:09.399Z,88471.81
2022-12-22T08:08:54.248Z,88481.31
2022-12-22T08:11:39.057Z,88479.44
2022-12-22T08:14:23.644Z,88481.72
2022-12-22T08:17:08.441Z,88487.94
2022-12-22T08:19:53.046Z,88483.16
2022-12-22T08:22:37.922Z,88496.44
2022-12-22T08:25:22.553Z,88520.22
2022-12-22T08:28:07.271Z,88519.41
2022-12-22T08:30:52.120Z,88517.00
2022-12-22T08:33:36.817Z,88504.81
2022-12-22T08:36:21.719Z,88500.63
2022-12-22T08:39:06.495Z,88511.50
2022-12-22T08:41:51.412Z,88524.47
2022-12-22T08:44:36.521Z,88520.00
2022-12-22T08:47:21.549Z,88524.94
2022-12-22T08:50:06.515Z,88518.31
2022-12-22T08:52:51.221Z,88505.75
2022-12-22T08:55:36.098Z,88514.66
2022-12-22T08:58:20.747Z,88515.19
2022-12-22T09:01:05.628Z,88516.69
2022-12-22T09:03:50.635Z,88525.94
2022-12-22T09:06:40.868Z,88524.25
2022-12-22T09:09:26.356Z,88529.66
2022-12-22T09:12:12.266Z,88530.44
2022-12-22T09:14:57.105Z,88546.34
2022-12-22T09:17:41.909Z,88548.03
2022-12-22T09:20:26.666Z,88545.44
2022-12-22T09:23:11.464Z,88543.78
2022-12-22T09:25:56.131Z,88542.03
2022-12-22T09:28:45.200Z,88550.41
2022-12-22T09:31:34.845Z,88549.25
2022-12-22T09:34:19.981Z,88560.41
2022-12-22T09:37:04.810Z,88554.81
2022-12-22T09:39:49.464Z,88546.41
2022-12-22T09:42:34.458Z,88557.84
2022-12-22T09:45:19.217Z,88547.34
2022-12-22T09:48:03.909Z,88545.81
2022-12-22T09:50:48.673Z,88563.44
2022-12-22T09:53:33.402Z,88570.59
2022-12-22T09:56:18.118Z,88564.69
2022-12-22T09:59:02.867Z,88557.91
2022-12-22T10:01:47.665Z,88567.22
2022-12-22T10:04:32.891Z,88559.19
2022-12-22T10:07:17.588Z,88548.13
2022-12-22T10:10:02.240Z,88543.16
2022-12-22T10:12:47.093Z,88535.69
2022-12-22T10:15:31.693Z,88546.72
2022-12-22T10:18:16.437Z,88535.84
2022-12-22T10:21:01.264Z,88544.38
2022-12-22T10:23:46.009Z,88543.00
2022-12-22T10:26:31.817Z,88533.50
2022-12-22T10:29:17.060Z,88527.16
2022-12-22T10:32:02.040Z,88503.34
2022-12-22T10:34:46.724Z,88499.03
2022-12-22T10:37:31.472Z,88512.13
2022-12-22T10:40:16.136Z,88510.38
2022-12-22T10:43:01.062Z,88500.09
2022-12-22T10:45:45.737Z,88516.19
2022-12-22T10:48:31.399Z,88507.06
2022-12-22T10:51:16.101Z,88512.72
2022-12-22T10:54:00.908Z,88519.75
2022-12-22T10:56:45.964Z,88519.75
2022-12-22T10:59:30.811Z,88525.91
2022-12-22T11:02:15.725Z,88509.72
2022-12-22T11:05:01.002Z,88509.06
2022-12-22T11:07:45.791Z,88497.06
2022-12-22T11:10:30.633Z,88496.78
2022-12-22T11:13:15.445Z,88483.16
2022-12-22T11:16:00.057Z,88485.97
2022-12-22T11:18:44.912Z,88486.34
2022-12-22T11:21:29.612Z,88484.00
2022-12-22T11:24:14.270Z,88484.75
2022-12-22T11:26:59.215Z,88500.28
2022-12-22T11:29:43.850Z,88505.91
2022-12-22T11:32:28.555Z,88511.94
2022-12-22T11:35:13.328Z,88503.03
2022-12-22T11:37:58.079Z,88492.91
2022-12-22T11:40:42.837Z,88498.56
2022-12-22T11:43:27.568Z,88492.25
2022-12-22T11:46:12.504Z,88479.41
2022-12-22T11:48:57.747Z,88473.78
2022-12-22T11:51:42.520Z,88484.44
2022-12-22T11:54:27.354Z,88497.03
2022-12-22T11:57:12.275Z,88499.16
2022-12-22T11:59:56.891Z,88494.13
2022-12-22T12:02:41.546Z,88494.84
2022-12-22T12:05:26.288Z,88477.28
2022-12-22T12:08:11.129Z,88475.53
2022-12-22T12:10:55.770Z,88475.38
2022-12-22T12:13:40.502Z,88473.44
2022-12-22T12:16:25.393Z,88467.69
2022-12-22T12:19:10.040Z,88467.53
2022-12-22T12:21:54.755Z,88457.78
2022-12-22T12:24:39.450Z,88457.66
2022-12-22T12:27:24.251Z,88450.50
2022-12-22T12:33:13.774Z,88451.53
2022-12-22T12:35:58.625Z,88478.22
2022-12-22T12:41:48.180Z,88478.88
2022-12-22T12:44:32.961Z,88484.09
2022-12-22T12:47:17.740Z,88478.75
2022-12-22T12:50:02.513Z,88474.75
2022-12-22T12:52:47.190Z,88459.00
2022-12-22T12:55:33.215Z,88492.22
2022-12-22T12:58:18.421Z,88473.97
2022-12-22T13:01:03.166Z,88451.41
2022-12-22T13:04:05.086Z,88463.72
2022-12-22T13:06:51.256Z,88469.53
2022-12-22T13:09:52.076Z,88463.38
2022-12-22T13:12:36.822Z,88479.75
2022-12-22T13:15:21.541Z,88470.03
2022-12-22T13:18:06.308Z,88471.75
2022-12-22T13:20:51.030Z,88469.41
2022-12-22T13:23:51.341Z,88482.66
2022-12-22T13:26:40.476Z,88487.25
2022-12-22T13:29:25.298Z,88471.94
2022-12-22T13:32:10.030Z,88492.97
2022-12-22T13:35:29.901Z,88485.84
2022-12-22T13:37:59.881Z,88493.66
2022-12-22T13:40:44.530Z,88495.75
2022-12-22T13:43:29.135Z,88503.41
2022-12-22T13:46:14.012Z,88508.44
2022-12-22T13:48:58.698Z,88501.84
2022-12-22T13:51:43.440Z,88487.22
2022-12-22T13:54:28.107Z,88487.75
2022-12-22T13:57:13.567Z,88483.91
2022-12-22T13:59:58.197Z,88484.28
2022-12-22T14:02:43.176Z,88485.84
2022-12-22T14:05:28.191Z,88489.47
2022-12-22T14:08:13.081Z,88496.75
2022-12-22T14:10:57.766Z,88506.00
2022-12-22T14:13:42.997Z,88502.19
2022-12-22T14:16:27.857Z,88499.56
2022-12-22T14:19:12.823Z,88511.53
2022-12-22T14:21:57.677Z,88500.22
2022-12-22T14:24:42.264Z,88509.56
2022-12-22T14:27:27.081Z,88508.19
2022-12-22T14:30:11.679Z,88512.34
2022-12-22T14:32:56.536Z,88504.13
2022-12-22T14:35:41.091Z,88505.31
2022-12-22T14:38:26.049Z,88508.25
2022-12-22T14:41:10.674Z,88500.53
2022-12-22T14:43:55.320Z,88505.59
2022-12-22T14:46:40.147Z,88502.53
2022-12-22T14:49:24.868Z,88496.25
2022-12-22T14:52:09.574Z,88492.38
2022-12-22T14:54:54.329Z,88501.44
2022-12-22T14:57:39.208Z,88496.72
2022-12-22T15:00:24.560Z,88495.69
2022-12-22T15:03:09.330Z,88491.50
2022-12-22T15:05:54.416Z,88494.44
2022-12-22T15:08:39.379Z,88493.94
2022-12-22T15:11:24.088Z,88488.53
2022-12-22T15:14:08.813Z,88489.22
2022-12-22T15:16:53.732Z,88488.31
2022-12-22T15:19:38.475Z,88493.53
2022-12-22T15:22:23.390Z,88480.66
2022-12-22T15:25:08.023Z,88485.50
2022-12-22T15:27:52.864Z,88479.22
2022-12-22T15:30:37.644Z,88481.47
2022-12-22T15:33:22.427Z,88486.63
2022-12-22T15:36:07.074Z,88486.41
2022-12-22T15:38:51.887Z,88490.63
2022-12-22T15:41:36.702Z,88498.06
2022-12-22T15:44:21.536Z,88502.03
2022-12-22T15:47:06.276Z,88502.00
2022-12-22T15:49:51.002Z,88504.31
2022-12-22T15:52:35.856Z,88510.44
2022-12-22T15:55:20.515Z,88508.25
2022-12-22T15:58:05.321Z,88501.28
2022-12-22T16:00:50.060Z,88505.91
2022-12-22T16:03:35.027Z,88505.78
2022-12-22T16:06:20.248Z,88508.38
2022-12-22T16:09:04.949Z,88501.50
2022-12-22T16:11:49.719Z,88498.13
2022-12-22T16:14:39.361Z,88498.75
2022-12-22T16:17:28.479Z,88497.66
2022-12-22T16:20:13.420Z,88488.97
2022-12-22T16:22:58.055Z,88498.53
2022-12-22T16:25:42.965Z,88502.56
2022-12-22T16:28:27.564Z,88494.63
2022-12-22T16:31:12.340Z,88494.31
2022-12-22T16:33:57.057Z,88491.72
2022-12-22T16:36:41.814Z,88486.81
2022-12-22T16:39:26.577Z,88486.94
2022-12-22T16:42:11.246Z,88492.03
2022-12-22T16:45:04.970Z,88489.94
2022-12-22T16:47:49.831Z,88485.44
2022-12-22T16:50:34.464Z,88479.72
2022-12-22T16:53:19.426Z,88474.31
2022-12-22T16:56:04.165Z,88485.44
2022-12-22T16:58:48.893Z,88481.22
2022-12-22T17:01:33.834Z,88485.03
2022-12-22T17:04:18.884Z,88481.03
2022-12-22T17:07:03.662Z,88477.94
2022-12-22T17:09:48.267Z,88473.03
2022-12-22T17:12:33.078Z,88470.16
2022-12-22T17:15:17.879Z,88476.88
2022-12-22T17:18:02.692Z,88463.25
2022-12-22T17:20:47.412Z,88459.25
2022-12-22T17:23:32.156Z,88454.03
2022-12-22T17:26:16.843Z,88447.13
2022-12-22T17:29:01.595Z,88442.13
2022-12-22T17:31:46.411Z,88430.88
2022-12-22T17:34:31.060Z,88420.00
2022-12-22T17:37:15.878Z,88409.38
2022-12-22T17:40:00.592Z,88400.03
2022-12-22T17:42:45.419Z,88402.34
2022-12-22T17:45:30.044Z,88396.94
2022-12-22T17:48:14.888Z,88391.75
2022-12-22T17:50:59.682Z,88393.28
2022-12-22T17:53:44.507Z,88384.75
2022-12-22T17:56:29.337Z,88393.19
2022-12-22T17:59:13.966Z,88390.59
2022-12-22T18:01:58.845Z,88389.50
2022-12-22T18:04:43.919Z,88383.03
2022-12-22T18:07:28.789Z,88384.28
2022-12-22T18:10:13.453Z,88374.00
2022-12-22T18:12:58.321Z,88376.38
2022-12-22T18:15:42.961Z,88377.59
2022-12-22T18:18:27.615Z,88372.72
2022-12-22T18:21:12.363Z,88377.72
2022-12-22T18:23:57.133Z,88371.63
2022-12-22T18:26:42.039Z,88377.00
2022-12-22T18:29:26.770Z,88370.81
2022-12-22T18:32:11.622Z,88369.69
2022-12-22T18:34:56.352Z,88367.34
2022-12-22T18:37:41.165Z,88372.56
2022-12-22T18:40:28.524Z,88367.16
2022-12-22T18:43:13.718Z,88367.78
2022-12-22T18:45:58.351Z,88375.50
2022-12-22T18:48:43.165Z,88370.22
2022-12-22T18:51:27.899Z,88376.13
2022-12-22T18:54:16.974Z,88381.41
2022-12-22T18:57:04.980Z,88378.59
2022-12-22T18:59:49.796Z,88378.50
2022-12-22T19:02:34.668Z,88384.31
2022-12-22T19:05:19.885Z,88394.13
2022-12-22T19:08:04.572Z,88381.75
2022-12-22T19:10:49.436Z,88363.25
2022-12-22T19:13:34.023Z,88370.75
2022-12-22T19:16:18.859Z,88363.88
2022-12-22T19:19:03.660Z,88358.16
2022-12-22T19:21:48.421Z,88359.81
2022-12-22T19:24:33.286Z,88354.31
2022-12-22T19:27:17.893Z,88358.84
2022-12-22T19:30:04.441Z,88368.16
2022-12-22T19:32:49.728Z,88370.47
2022-12-22T19:35:34.767Z,88370.06
2022-12-22T19:38:19.403Z,88365.63
2022-12-22T19:41:04.128Z,88377.63
2022-12-22T19:43:48.981Z,88364.63
2022-12-22T19:46:33.718Z,88371.25
2022-12-22T19:49:18.917Z,88371.84
2022-12-22T19:52:03.729Z,88384.03
2022-12-22T19:54:49.082Z,88379.84
2022-12-22T19:57:33.863Z,88383.25
2022-12-22T20:00:18.619Z,88375.72
2022-12-22T20:03:03.590Z,88372.44
2022-12-22T20:05:48.684Z,88375.72
2022-12-22T20:08:33.634Z,88373.75
2022-12-22T20:11:18.300Z,88371.66
2022-12-22T20:14:03.243Z,88372.34
2022-12-22T20:16:47.853Z,88365.47
2022-12-22T20:19:32.602Z,88359.66
2022-12-22T20:22:17.315Z,88359.47
2022-12-22T20:25:02.075Z,88360.38
2022-12-22T20:27:46.873Z,88365.19
2022-12-22T20:30:31.695Z,88355.50
2022-12-22T20:33:16.699Z,88354.28
2022-12-22T20:36:01.493Z,88348.63
2022-12-22T20:38:46.260Z,88336.44
2022-12-22T20:41:31.114Z,88332.25
2022-12-22T20:44:16.027Z,88336.72
2022-12-22T20:47:00.783Z,88328.25
2022-12-22T20:49:45.543Z,88333.16
2022-12-22T20:52:30.239Z,88322.44
2022-12-22T20:55:14.955Z,88328.75
2022-12-22T20:57:59.775Z,88335.94
2022-12-22T21:00:44.487Z,88332.16
2022-12-22T21:03:29.403Z,88345.44
2022-12-22T21:06:14.743Z,88338.56
2022-12-22T21:08:59.655Z,88343.66
2022-12-22T21:11:44.324Z,88335.56
2022-12-22T21:14:29.187Z,88336.03
2022-12-22T21:17:13.937Z,88334.44
2022-12-22T21:19:59.078Z,88341.66
2022-12-22T21:22:43.822Z,88349.31
2022-12-22T21:25:28.729Z,88345.13
2022-12-22T21:28:13.574Z,88351.03
2022-12-22T21:30:58.353Z,88359.53
2022-12-22T21:33:43.031Z,88361.00
2022-12-22T21:36:27.810Z,88357.41
2022-12-22T21:39:12.575Z,88358.22
2022-12-22T21:41:57.241Z,88340.03
2022-12-22T21:44:42.079Z,88333.66
2022-12-22T21:47:26.916Z,88316.28
2022-12-22T21:50:11.616Z,88333.03
2022-12-22T21:52:56.349Z,88324.19
2022-12-22T21:55:41.092Z,88334.34
2022-12-22T21:58:25.826Z,88326.16
2022-12-22T22:01:11.536Z,88333.03
2022-12-22T22:03:56.964Z,88339.94
2022-12-22T22:06:41.544Z,88342.91
2022-12-22T22:09:26.308Z,88344.69
2022-12-22T22:12:11.166Z,88335.31
2022-12-22T22:14:56.047Z,88337.50
2022-12-22T22:17:40.864Z,88320.56
2022-12-22T22:20:25.617Z,88324.44
2022-12-22T22:23:10.531Z,88317.59
2022-12-22T22:25:55.278Z,88307.59
2022-12-22T22:28:39.986Z,88301.72
2022-12-22T22:31:25.243Z,88319.34
2022-12-22T22:34:09.990Z,88318.97
2022-12-22T22:36:54.764Z,88322.66
2022-12-22T22:39:39.548Z,88324.22
2022-12-22T22:42:24.457Z,88321.44
2022-12-22T22:45:09.209Z,88304.69
2022-12-22T22:47:53.996Z,88322.72
2022-12-22T22:50:38.622Z,88298.19
2022-12-22T22:53:23.364Z,88295.00
2022-12-22T22:56:08.095Z,88279.97
2022-12-22T22:58:52.969Z,88295.13
2022-12-22T23:01:37.669Z,88291.53
2022-12-22T23:04:22.482Z,88281.44
2022-12-22T23:07:07.097Z,88273.34
2022-12-22T23:09:51.876Z,88280.66
2022-12-22T23:12:36.502Z,88286.44
2022-12-22T23:15:21.376Z,88308.69
2022-12-22T23:18:06.144Z,88300.41
2022-12-22T23:20:50.948Z,88298.81
2022-12-22T23:23:35.689Z,88291.94
2022-12-22T23:26:20.381Z,88291.03
2022-12-22T23:29:05.065Z,88292.72
2022-12-22T23:31:49.952Z,88291.03
2022-12-22T23:34:34.709Z,88288.22
2022-12-22T23:37:19.970Z,88288.75
2022-12-22T23:40:42.107Z,88299.41
2022-12-22T23:43:10.127Z,88304.78
2022-12-22T23:45:54.643Z,88305.31
2022-12-22T23:48:39.557Z,88298.31
2022-12-22T23:51:24.187Z,88306.00
2022-12-22T23:54:09.021Z,88297.31
2022-12-22T23:56:53.616Z,88296.22
2022-12-22T23:59:38.461Z,88300.91
